sensor_id;sensor_type;location;lat;lon;timestamp;P1;durP1;ratioP1;P2;durP2;ratioP2
8327;SDS011;4201;48.754;8.864;2023-12-20T00:00:24;3.60;;;2.77;;
8327;SDS011;4201;48.754;8.864;2023-12-20T00:02:50;3.83;;;2.50;;
8327;SDS011;4201;48.754;8.864;2023-12-20T00:05:18;5.20;;;3.00;;
8327;SDS011;4201;48.754;8.864;2023-12-20T00:07:44;4.70;;;2.80;;
8327;SDS011;4201;48.754;8.864;2023-12-20T00:10:10;4.47;;;2.70;;
8327;SDS011;4201;48.754;8.864;2023-12-20T00:12:38;5.00;;;2.93;;
8327;SDS011;4201;48.754;8.864;2023-12-20T00:15:05;4.10;;;2.50;;
8327;SDS011;4201;48.754;8.864;2023-12-20T00:17:31;3.57;;;2.43;;
8327;SDS011;4201;48.754;8.864;2023-12-20T00:19:57;4.17;;;2.90;;
8327;SDS011;4201;48.754;8.864;2023-12-20T00:22:25;5.07;;;3.10;;
8327;SDS011;4201;48.754;8.864;2023-12-20T00:24:51;5.03;;;3.10;;
8327;SDS011;4201;48.754;8.864;2023-12-20T00:27:17;4.17;;;2.97;;
8327;SDS011;4201;48.754;8.864;2023-12-20T00:29:43;5.40;;;3.57;;
8327;SDS011;4201;48.754;8.864;2023-12-20T00:32:13;6.53;;;4.07;;
8327;SDS011;4201;48.754;8.864;2023-12-20T00:34:39;6.87;;;3.80;;
8327;SDS011;4201;48.754;8.864;2023-12-20T00:37:05;9.73;;;4.80;;
8327;SDS011;4201;48.754;8.864;2023-12-20T00:39:33;6.00;;;3.20;;
8327;SDS011;4201;48.754;8.864;2023-12-20T00:41:59;5.43;;;3.60;;
8327;SDS011;4201;48.754;8.864;2023-12-20T00:44:25;5.00;;;3.37;;
8327;SDS011;4201;48.754;8.864;2023-12-20T00:46:51;5.20;;;3.43;;
8327;SDS011;4201;48.754;8.864;2023-12-20T00:49:18;5.23;;;3.20;;
8327;SDS011;4201;48.754;8.864;2023-12-20T00:51:44;4.60;;;2.70;;
8327;SDS011;4201;48.754;8.864;2023-12-20T00:54:12;4.60;;;2.93;;
8327;SDS011;4201;48.754;8.864;2023-12-20T00:56:39;3.30;;;2.03;;
8327;SDS011;4201;48.754;8.864;2023-12-20T00:59:06;4.00;;;2.40;;
8327;SDS011;4201;48.754;8.864;2023-12-20T01:01:32;5.20;;;2.10;;
8327;SDS011;4201;48.754;8.864;2023-12-20T01:03:59;4.00;;;1.97;;
8327;SDS011;4201;48.754;8.864;2023-12-20T01:06:25;4.70;;;1.70;;
8327;SDS011;4201;48.754;8.864;2023-12-20T01:08:51;3.63;;;1.87;;
8327;SDS011;4201;48.754;8.864;2023-12-20T01:11:17;3.37;;;1.73;;
8327;SDS011;4201;48.754;8.864;2023-12-20T01:13:45;2.90;;;1.87;;
8327;SDS011;4201;48.754;8.864;2023-12-20T01:16:11;3.83;;;1.77;;
8327;SDS011;4201;48.754;8.864;2023-12-20T01:18:38;5.00;;;1.70;;
8327;SDS011;4201;48.754;8.864;2023-12-20T01:21:04;2.60;;;1.50;;
8327;SDS011;4201;48.754;8.864;2023-12-20T01:23:30;2.80;;;1.50;;
8327;SDS011;4201;48.754;8.864;2023-12-20T01:25:57;3.03;;;1.37;;
8327;SDS011;4201;48.754;8.864;2023-12-20T01:28:24;4.03;;;1.60;;
8327;SDS011;4201;48.754;8.864;2023-12-20T01:30:52;3.00;;;1.50;;
8327;SDS011;4201;48.754;8.864;2023-12-20T01:33:18;2.00;;;1.13;;
8327;SDS011;4201;48.754;8.864;2023-12-20T01:35:44;2.67;;;1.30;;
8327;SDS011;4201;48.754;8.864;2023-12-20T01:38:11;2.73;;;1.20;;
8327;SDS011;4201;48.754;8.864;2023-12-20T01:40:37;2.30;;;1.03;;
8327;SDS011;4201;48.754;8.864;2023-12-20T01:43:06;3.00;;;1.00;;
8327;SDS011;4201;48.754;8.864;2023-12-20T01:45:32;2.40;;;1.10;;
8327;SDS011;4201;48.754;8.864;2023-12-20T01:48:00;2.53;;;1.37;;
8327;SDS011;4201;48.754;8.864;2023-12-20T01:50:28;2.40;;;1.20;;
8327;SDS011;4201;48.754;8.864;2023-12-20T01:52:54;2.87;;;1.40;;
8327;SDS011;4201;48.754;8.864;2023-12-20T01:55:22;2.13;;;1.00;;
8327;SDS011;4201;48.754;8.864;2023-12-20T01:57:49;2.13;;;0.93;;
8327;SDS011;4201;48.754;8.864;2023-12-20T02:00:15;1.97;;;0.80;;
8327;SDS011;4201;48.754;8.864;2023-12-20T02:02:42;2.00;;;0.80;;
8327;SDS011;4201;48.754;8.864;2023-12-20T02:05:10;4.87;;;0.73;;
8327;SDS011;4201;48.754;8.864;2023-12-20T02:07:36;1.70;;;0.70;;
8327;SDS011;4201;48.754;8.864;2023-12-20T02:10:03;1.80;;;0.80;;
8327;SDS011;4201;48.754;8.864;2023-12-20T02:12:30;1.90;;;0.80;;
8327;SDS011;4201;48.754;8.864;2023-12-20T02:14:56;1.70;;;0.83;;
8327;SDS011;4201;48.754;8.864;2023-12-20T02:17:22;1.67;;;0.70;;
8327;SDS011;4201;48.754;8.864;2023-12-20T02:19:49;3.87;;;0.80;;
8327;SDS011;4201;48.754;8.864;2023-12-20T02:22:16;1.93;;;0.70;;
8327;SDS011;4201;48.754;8.864;2023-12-20T02:24:43;1.40;;;0.60;;
8327;SDS011;4201;48.754;8.864;2023-12-20T02:27:09;1.60;;;0.70;;
8327;SDS011;4201;48.754;8.864;2023-12-20T02:29:35;1.50;;;0.60;;
8327;SDS011;4201;48.754;8.864;2023-12-20T02:32:02;1.43;;;0.60;;
8327;SDS011;4201;48.754;8.864;2023-12-20T02:34:28;2.10;;;0.90;;
8327;SDS011;4201;48.754;8.864;2023-12-20T02:36:55;1.70;;;0.60;;
8327;SDS011;4201;48.754;8.864;2023-12-20T02:39:22;1.50;;;0.60;;
8327;SDS011;4201;48.754;8.864;2023-12-20T02:41:49;1.60;;;0.60;;
8327;SDS011;4201;48.754;8.864;2023-12-20T02:44:15;1.40;;;0.60;;
8327;SDS011;4201;48.754;8.864;2023-12-20T02:46:41;1.80;;;0.70;;
8327;SDS011;4201;48.754;8.864;2023-12-20T02:49:07;1.50;;;0.50;;
8327;SDS011;4201;48.754;8.864;2023-12-20T02:51:33;1.50;;;0.60;;
8327;SDS011;4201;48.754;8.864;2023-12-20T02:54:03;1.60;;;0.60;;
8327;SDS011;4201;48.754;8.864;2023-12-20T02:56:30;1.63;;;0.60;;
8327;SDS011;4201;48.754;8.864;2023-12-20T02:58:57;1.53;;;0.63;;
8327;SDS011;4201;48.754;8.864;2023-12-20T03:01:23;1.50;;;0.60;;
8327;SDS011;4201;48.754;8.864;2023-12-20T03:03:49;2.57;;;1.03;;
8327;SDS011;4201;48.754;8.864;2023-12-20T03:06:16;1.77;;;0.63;;
8327;SDS011;4201;48.754;8.864;2023-12-20T03:08:43;1.60;;;0.73;;
8327;SDS011;4201;48.754;8.864;2023-12-20T03:11:09;1.40;;;0.60;;
8327;SDS011;4201;48.754;8.864;2023-12-20T03:13:37;1.57;;;0.60;;
8327;SDS011;4201;48.754;8.864;2023-12-20T03:16:07;1.50;;;0.60;;
8327;SDS011;4201;48.754;8.864;2023-12-20T03:18:33;1.50;;;0.60;;
8327;SDS011;4201;48.754;8.864;2023-12-20T03:21:00;2.13;;;0.80;;
8327;SDS011;4201;48.754;8.864;2023-12-20T03:23:26;1.40;;;0.60;;
8327;SDS011;4201;48.754;8.864;2023-12-20T03:25:52;1.50;;;0.60;;
8327;SDS011;4201;48.754;8.864;2023-12-20T03:28:18;1.47;;;0.60;;
8327;SDS011;4201;48.754;8.864;2023-12-20T03:30:46;1.50;;;0.60;;
8327;SDS011;4201;48.754;8.864;2023-12-20T03:33:12;1.50;;;0.60;;
8327;SDS011;4201;48.754;8.864;2023-12-20T03:35:41;1.87;;;0.60;;
8327;SDS011;4201;48.754;8.864;2023-12-20T03:38:08;1.40;;;0.60;;
8327;SDS011;4201;48.754;8.864;2023-12-20T03:40:34;1.60;;;0.60;;
8327;SDS011;4201;48.754;8.864;2023-12-20T03:43:00;1.40;;;0.60;;
8327;SDS011;4201;48.754;8.864;2023-12-20T03:45:27;1.40;;;0.60;;
8327;SDS011;4201;48.754;8.864;2023-12-20T03:47:54;1.40;;;0.60;;
8327;SDS011;4201;48.754;8.864;2023-12-20T03:50:21;2.30;;;0.70;;
8327;SDS011;4201;48.754;8.864;2023-12-20T03:52:47;1.70;;;0.70;;
8327;SDS011;4201;48.754;8.864;2023-12-20T03:55:14;2.27;;;0.80;;
8327;SDS011;4201;48.754;8.864;2023-12-20T03:57:40;1.60;;;0.60;;
8327;SDS011;4201;48.754;8.864;2023-12-20T04:00:07;8.30;;;0.80;;
8327;SDS011;4201;48.754;8.864;2023-12-20T04:02:35;1.67;;;0.67;;
8327;SDS011;4201;48.754;8.864;2023-12-20T04:05:03;1.50;;;0.60;;
8327;SDS011;4201;48.754;8.864;2023-12-20T04:07:29;1.40;;;0.60;;
8327;SDS011;4201;48.754;8.864;2023-12-20T04:09:56;1.50;;;0.60;;
8327;SDS011;4201;48.754;8.864;2023-12-20T04:12:22;1.50;;;0.60;;
8327;SDS011;4201;48.754;8.864;2023-12-20T04:14:48;1.50;;;0.63;;
8327;SDS011;4201;48.754;8.864;2023-12-20T04:17:15;4.13;;;0.70;;
8327;SDS011;4201;48.754;8.864;2023-12-20T04:19:41;1.60;;;0.60;;
8327;SDS011;4201;48.754;8.864;2023-12-20T04:22:08;6.13;;;0.70;;
8327;SDS011;4201;48.754;8.864;2023-12-20T04:24:35;1.83;;;0.80;;
8327;SDS011;4201;48.754;8.864;2023-12-20T04:27:01;1.50;;;0.60;;
8327;SDS011;4201;48.754;8.864;2023-12-20T04:29:27;1.40;;;0.60;;
8327;SDS011;4201;48.754;8.864;2023-12-20T04:31:53;1.50;;;0.70;;
8327;SDS011;4201;48.754;8.864;2023-12-20T04:34:20;1.40;;;0.60;;
8327;SDS011;4201;48.754;8.864;2023-12-20T04:36:46;1.80;;;0.77;;
8327;SDS011;4201;48.754;8.864;2023-12-20T04:39:14;1.60;;;0.70;;
8327;SDS011;4201;48.754;8.864;2023-12-20T04:41:41;2.53;;;1.20;;
8327;SDS011;4201;48.754;8.864;2023-12-20T04:44:07;1.50;;;0.70;;
8327;SDS011;4201;48.754;8.864;2023-12-20T04:46:33;1.70;;;0.67;;
8327;SDS011;4201;48.754;8.864;2023-12-20T04:48:59;2.90;;;0.60;;
8327;SDS011;4201;48.754;8.864;2023-12-20T04:51:26;1.50;;;0.60;;
8327;SDS011;4201;48.754;8.864;2023-12-20T04:53:52;1.60;;;0.60;;
8327;SDS011;4201;48.754;8.864;2023-12-20T04:56:19;2.67;;;0.70;;
8327;SDS011;4201;48.754;8.864;2023-12-20T04:58:46;1.63;;;0.60;;
8327;SDS011;4201;48.754;8.864;2023-12-20T05:01:13;1.50;;;0.60;;
8327;SDS011;4201;48.754;8.864;2023-12-20T05:03:39;1.40;;;0.60;;
8327;SDS011;4201;48.754;8.864;2023-12-20T05:06:06;2.43;;;1.00;;
8327;SDS011;4201;48.754;8.864;2023-12-20T05:08:32;1.57;;;0.70;;
8327;SDS011;4201;48.754;8.864;2023-12-20T05:10:58;1.40;;;0.60;;
8327;SDS011;4201;48.754;8.864;2023-12-20T05:13:26;2.00;;;0.90;;
8327;SDS011;4201;48.754;8.864;2023-12-20T05:15:52;1.53;;;0.70;;
8327;SDS011;4201;48.754;8.864;2023-12-20T05:18:18;1.80;;;0.70;;
8327;SDS011;4201;48.754;8.864;2023-12-20T05:20:44;1.90;;;0.80;;
8327;SDS011;4201;48.754;8.864;2023-12-20T05:23:11;1.50;;;0.60;;
8327;SDS011;4201;48.754;8.864;2023-12-20T05:25:38;1.60;;;0.70;;
8327;SDS011;4201;48.754;8.864;2023-12-20T05:28:04;1.60;;;0.70;;
8327;SDS011;4201;48.754;8.864;2023-12-20T05:30:32;1.80;;;0.70;;
8327;SDS011;4201;48.754;8.864;2023-12-20T05:32:58;1.50;;;0.60;;
8327;SDS011;4201;48.754;8.864;2023-12-20T05:35:24;2.37;;;0.70;;
8327;SDS011;4201;48.754;8.864;2023-12-20T05:37:51;1.60;;;0.83;;
8327;SDS011;4201;48.754;8.864;2023-12-20T05:40:17;2.00;;;0.70;;
8327;SDS011;4201;48.754;8.864;2023-12-20T05:42:43;2.00;;;0.70;;
8327;SDS011;4201;48.754;8.864;2023-12-20T05:45:10;2.10;;;0.93;;
8327;SDS011;4201;48.754;8.864;2023-12-20T05:47:38;3.80;;;1.00;;
8327;SDS011;4201;48.754;8.864;2023-12-20T05:50:05;2.57;;;1.20;;
8327;SDS011;4201;48.754;8.864;2023-12-20T05:52:31;4.37;;;1.47;;
8327;SDS011;4201;48.754;8.864;2023-12-20T05:54:57;1.80;;;0.90;;
8327;SDS011;4201;48.754;8.864;2023-12-20T05:57:26;1.77;;;0.77;;
8327;SDS011;4201;48.754;8.864;2023-12-20T05:59:52;2.97;;;0.93;;
8327;SDS011;4201;48.754;8.864;2023-12-20T06:02:18;3.23;;;0.90;;
8327;SDS011;4201;48.754;8.864;2023-12-20T06:04:46;1.93;;;0.83;;
8327;SDS011;4201;48.754;8.864;2023-12-20T06:07:12;7.57;;;6.03;;
8327;SDS011;4201;48.754;8.864;2023-12-20T06:09:38;6.60;;;5.77;;
8327;SDS011;4201;48.754;8.864;2023-12-20T06:12:05;4.83;;;4.33;;
8327;SDS011;4201;48.754;8.864;2023-12-20T06:14:31;3.60;;;2.93;;
8327;SDS011;4201;48.754;8.864;2023-12-20T06:16:57;1.83;;;1.03;;
8327;SDS011;4201;48.754;8.864;2023-12-20T06:19:24;2.63;;;0.80;;
8327;SDS011;4201;48.754;8.864;2023-12-20T06:21:51;1.93;;;0.70;;
8327;SDS011;4201;48.754;8.864;2023-12-20T06:24:17;1.50;;;0.70;;
8327;SDS011;4201;48.754;8.864;2023-12-20T06:26:44;2.03;;;0.90;;
8327;SDS011;4201;48.754;8.864;2023-12-20T06:29:10;2.70;;;2.00;;
8327;SDS011;4201;48.754;8.864;2023-12-20T06:31:36;3.13;;;2.30;;
8327;SDS011;4201;48.754;8.864;2023-12-20T06:34:02;4.00;;;2.87;;
8327;SDS011;4201;48.754;8.864;2023-12-20T06:36:29;5.13;;;4.73;;
8327;SDS011;4201;48.754;8.864;2023-12-20T06:38:56;1.90;;;1.00;;
8327;SDS011;4201;48.754;8.864;2023-12-20T06:41:23;13.37;;;12.27;;
8327;SDS011;4201;48.754;8.864;2023-12-20T06:43:50;5.30;;;4.80;;
8327;SDS011;4201;48.754;8.864;2023-12-20T06:46:16;3.70;;;2.87;;
8327;SDS011;4201;48.754;8.864;2023-12-20T06:48:42;1.70;;;0.90;;
8327;SDS011;4201;48.754;8.864;2023-12-20T06:51:10;1.70;;;0.80;;
8327;SDS011;4201;48.754;8.864;2023-12-20T06:53:37;2.23;;;0.90;;
8327;SDS011;4201;48.754;8.864;2023-12-20T06:56:05;1.97;;;0.80;;
8327;SDS011;4201;48.754;8.864;2023-12-20T06:58:32;1.80;;;0.83;;
8327;SDS011;4201;48.754;8.864;2023-12-20T07:00:58;2.07;;;1.13;;
8327;SDS011;4201;48.754;8.864;2023-12-20T07:03:24;2.10;;;1.00;;
8327;SDS011;4201;48.754;8.864;2023-12-20T07:05:51;1.70;;;0.80;;
8327;SDS011;4201;48.754;8.864;2023-12-20T07:08:17;2.83;;;1.07;;
8327;SDS011;4201;48.754;8.864;2023-12-20T07:10:44;3.30;;;1.50;;
8327;SDS011;4201;48.754;8.864;2023-12-20T07:13:12;2.57;;;1.40;;
8327;SDS011;4201;48.754;8.864;2023-12-20T07:15:38;2.60;;;1.53;;
8327;SDS011;4201;48.754;8.864;2023-12-20T07:18:04;2.80;;;1.90;;
8327;SDS011;4201;48.754;8.864;2023-12-20T07:20:31;4.00;;;2.30;;
8327;SDS011;4201;48.754;8.864;2023-12-20T07:22:57;4.93;;;2.00;;
8327;SDS011;4201;48.754;8.864;2023-12-20T07:25:24;3.37;;;2.77;;
8327;SDS011;4201;48.754;8.864;2023-12-20T07:27:50;3.67;;;2.37;;
8327;SDS011;4201;48.754;8.864;2023-12-20T07:30:18;3.40;;;2.60;;
8327;SDS011;4201;48.754;8.864;2023-12-20T07:32:44;5.90;;;2.87;;
8327;SDS011;4201;48.754;8.864;2023-12-20T07:35:10;4.20;;;3.40;;
8327;SDS011;4201;48.754;8.864;2023-12-20T07:37:36;5.20;;;4.50;;
8327;SDS011;4201;48.754;8.864;2023-12-20T07:40:03;5.40;;;3.40;;
8327;SDS011;4201;48.754;8.864;2023-12-20T07:42:29;6.13;;;4.83;;
8327;SDS011;4201;48.754;8.864;2023-12-20T07:44:55;5.37;;;4.00;;
8327;SDS011;4201;48.754;8.864;2023-12-20T07:47:23;10.60;;;4.00;;
8327;SDS011;4201;48.754;8.864;2023-12-20T07:49:50;6.03;;;4.40;;
8327;SDS011;4201;48.754;8.864;2023-12-20T07:52:17;4.90;;;3.67;;
8327;SDS011;4201;48.754;8.864;2023-12-20T07:54:44;6.03;;;3.90;;
8327;SDS011;4201;48.754;8.864;2023-12-20T07:57:10;4.50;;;3.97;;
8327;SDS011;4201;48.754;8.864;2023-12-20T07:59:36;4.37;;;3.20;;
8327;SDS011;4201;48.754;8.864;2023-12-20T08:02:03;5.30;;;3.70;;
8327;SDS011;4201;48.754;8.864;2023-12-20T08:04:30;5.50;;;3.83;;
8327;SDS011;4201;48.754;8.864;2023-12-20T08:06:57;4.53;;;3.77;;
8327;SDS011;4201;48.754;8.864;2023-12-20T08:09:23;8.67;;;3.87;;
8327;SDS011;4201;48.754;8.864;2023-12-20T08:11:50;4.90;;;3.20;;
8327;SDS011;4201;48.754;8.864;2023-12-20T08:14:16;5.00;;;3.70;;
8327;SDS011;4201;48.754;8.864;2023-12-20T08:16:42;4.80;;;3.60;;
8327;SDS011;4201;48.754;8.864;2023-12-20T08:19:08;4.13;;;3.37;;
8327;SDS011;4201;48.754;8.864;2023-12-20T08:21:36;5.97;;;3.77;;
8327;SDS011;4201;48.754;8.864;2023-12-20T08:24:02;7.30;;;3.93;;
8327;SDS011;4201;48.754;8.864;2023-12-20T08:26:29;5.60;;;3.00;;
8327;SDS011;4201;48.754;8.864;2023-12-20T08:28:55;4.10;;;3.17;;
8327;SDS011;4201;48.754;8.864;2023-12-20T08:31:21;4.40;;;2.50;;
8327;SDS011;4201;48.754;8.864;2023-12-20T08:33:48;4.27;;;2.73;;
8327;SDS011;4201;48.754;8.864;2023-12-20T08:36:14;5.27;;;2.70;;
8327;SDS011;4201;48.754;8.864;2023-12-20T08:38:45;4.63;;;2.80;;
8327;SDS011;4201;48.754;8.864;2023-12-20T08:41:11;6.20;;;3.20;;
8327;SDS011;4201;48.754;8.864;2023-12-20T08:43:37;5.27;;;3.23;;
8327;SDS011;4201;48.754;8.864;2023-12-20T08:46:05;6.17;;;2.30;;
8327;SDS011;4201;48.754;8.864;2023-12-20T08:48:31;3.40;;;2.60;;
8327;SDS011;4201;48.754;8.864;2023-12-20T08:50:57;6.57;;;2.33;;
8327;SDS011;4201;48.754;8.864;2023-12-20T08:53:23;5.53;;;2.43;;
8327;SDS011;4201;48.754;8.864;2023-12-20T08:55:51;7.80;;;2.73;;
8327;SDS011;4201;48.754;8.864;2023-12-20T08:58:17;8.77;;;2.60;;
8327;SDS011;4201;48.754;8.864;2023-12-20T09:00:44;6.13;;;2.53;;
8327;SDS011;4201;48.754;8.864;2023-12-20T09:03:11;6.90;;;2.80;;
8327;SDS011;4201;48.754;8.864;2023-12-20T09:05:37;6.50;;;2.20;;
8327;SDS011;4201;48.754;8.864;2023-12-20T09:08:03;4.07;;;2.37;;
8327;SDS011;4201;48.754;8.864;2023-12-20T09:10:30;5.37;;;2.70;;
8327;SDS011;4201;48.754;8.864;2023-12-20T09:12:57;5.07;;;2.47;;
8327;SDS011;4201;48.754;8.864;2023-12-20T09:15:24;6.70;;;2.80;;
8327;SDS011;4201;48.754;8.864;2023-12-20T09:17:50;6.43;;;2.50;;
8327;SDS011;4201;48.754;8.864;2023-12-20T09:20:17;3.80;;;2.40;;
8327;SDS011;4201;48.754;8.864;2023-12-20T09:22:43;10.90;;;2.53;;
8327;SDS011;4201;48.754;8.864;2023-12-20T09:25:09;7.43;;;2.17;;
8327;SDS011;4201;48.754;8.864;2023-12-20T09:27:36;10.13;;;3.17;;
8327;SDS011;4201;48.754;8.864;2023-12-20T09:30:04;3.60;;;1.97;;
8327;SDS011;4201;48.754;8.864;2023-12-20T09:32:31;8.77;;;2.40;;
8327;SDS011;4201;48.754;8.864;2023-12-20T09:34:57;7.53;;;3.17;;
8327;SDS011;4201;48.754;8.864;2023-12-20T09:37:25;6.33;;;2.37;;
8327;SDS011;4201;48.754;8.864;2023-12-20T09:39:52;5.23;;;2.33;;
8327;SDS011;4201;48.754;8.864;2023-12-20T09:42:21;7.20;;;2.40;;
8327;SDS011;4201;48.754;8.864;2023-12-20T09:44:48;11.63;;;3.73;;
8327;SDS011;4201;48.754;8.864;2023-12-20T09:47:16;7.57;;;2.53;;
8327;SDS011;4201;48.754;8.864;2023-12-20T09:49:45;3.30;;;2.00;;
8327;SDS011;4201;48.754;8.864;2023-12-20T09:52:12;3.53;;;1.90;;
8327;SDS011;4201;48.754;8.864;2023-12-20T09:54:39;11.60;;;2.23;;
8327;SDS011;4201;48.754;8.864;2023-12-20T09:57:06;11.87;;;3.00;;
8327;SDS011;4201;48.754;8.864;2023-12-20T09:59:32;6.70;;;2.57;;
8327;SDS011;4201;48.754;8.864;2023-12-20T10:01:58;6.33;;;2.20;;
8327;SDS011;4201;48.754;8.864;2023-12-20T10:04:29;9.63;;;2.87;;
8327;SDS011;4201;48.754;8.864;2023-12-20T10:07:01;7.30;;;3.13;;
8327;SDS011;4201;48.754;8.864;2023-12-20T10:09:29;2.90;;;1.87;;
8327;SDS011;4201;48.754;8.864;2023-12-20T10:11:57;8.10;;;2.20;;
8327;SDS011;4201;48.754;8.864;2023-12-20T10:14:23;10.33;;;2.80;;
8327;SDS011;4201;48.754;8.864;2023-12-20T10:16:50;4.63;;;2.93;;
8327;SDS011;4201;48.754;8.864;2023-12-20T10:19:16;7.80;;;2.30;;
8327;SDS011;4201;48.754;8.864;2023-12-20T10:21:44;11.10;;;2.97;;
8327;SDS011;4201;48.754;8.864;2023-12-20T10:24:11;6.73;;;2.50;;
8327;SDS011;4201;48.754;8.864;2023-12-20T10:26:42;5.47;;;2.40;;
8327;SDS011;4201;48.754;8.864;2023-12-20T10:29:08;6.70;;;1.90;;
8327;SDS011;4201;48.754;8.864;2023-12-20T10:31:36;8.73;;;2.73;;
8327;SDS011;4201;48.754;8.864;2023-12-20T10:34:03;14.53;;;5.00;;
8327;SDS011;4201;48.754;8.864;2023-12-20T10:36:30;7.23;;;2.40;;
8327;SDS011;4201;48.754;8.864;2023-12-20T10:38:58;11.93;;;2.23;;
8327;SDS011;4201;48.754;8.864;2023-12-20T10:41:29;7.87;;;3.37;;
8327;SDS011;4201;48.754;8.864;2023-12-20T10:43:56;5.50;;;2.37;;
8327;SDS011;4201;48.754;8.864;2023-12-20T10:46:23;12.60;;;2.73;;
8327;SDS011;4201;48.754;8.864;2023-12-20T10:48:51;4.10;;;2.00;;
8327;SDS011;4201;48.754;8.864;2023-12-20T10:51:18;7.43;;;2.50;;
8327;SDS011;4201;48.754;8.864;2023-12-20T10:53:46;7.53;;;2.30;;
8327;SDS011;4201;48.754;8.864;2023-12-20T10:56:15;12.37;;;2.50;;
8327;SDS011;4201;48.754;8.864;2023-12-20T10:58:41;6.07;;;2.70;;
8327;SDS011;4201;48.754;8.864;2023-12-20T11:01:08;5.67;;;2.40;;
8327;SDS011;4201;48.754;8.864;2023-12-20T11:03:35;5.60;;;2.33;;
8327;SDS011;4201;48.754;8.864;2023-12-20T11:06:02;16.83;;;3.30;;
8327;SDS011;4201;48.754;8.864;2023-12-20T11:08:31;9.50;;;2.80;;
8327;SDS011;4201;48.754;8.864;2023-12-20T11:10:59;6.93;;;2.23;;
8327;SDS011;4201;48.754;8.864;2023-12-20T11:13:31;8.60;;;2.97;;
8327;SDS011;4201;48.754;8.864;2023-12-20T11:15:58;4.57;;;2.30;;
8327;SDS011;4201;48.754;8.864;2023-12-20T11:18:28;8.40;;;2.80;;
8327;SDS011;4201;48.754;8.864;2023-12-20T11:20:54;4.80;;;2.30;;
8327;SDS011;4201;48.754;8.864;2023-12-20T11:23:20;10.00;;;2.40;;
8327;SDS011;4201;48.754;8.864;2023-12-20T11:25:48;10.67;;;2.30;;
8327;SDS011;4201;48.754;8.864;2023-12-20T11:28:14;10.53;;;2.70;;
8327;SDS011;4201;48.754;8.864;2023-12-20T11:30:47;11.50;;;2.30;;
8327;SDS011;4201;48.754;8.864;2023-12-20T11:33:13;10.97;;;2.30;;
8327;SDS011;4201;48.754;8.864;2023-12-20T11:35:40;8.90;;;2.60;;
8327;SDS011;4201;48.754;8.864;2023-12-20T11:38:07;7.30;;;2.60;;
8327;SDS011;4201;48.754;8.864;2023-12-20T11:40:34;6.93;;;2.77;;
8327;SDS011;4201;48.754;8.864;2023-12-20T11:43:00;8.80;;;3.40;;
8327;SDS011;4201;48.754;8.864;2023-12-20T11:45:27;10.13;;;2.67;;
8327;SDS011;4201;48.754;8.864;2023-12-20T11:47:55;8.97;;;2.97;;
8327;SDS011;4201;48.754;8.864;2023-12-20T11:50:22;10.43;;;3.23;;
8327;SDS011;4201;48.754;8.864;2023-12-20T11:52:49;7.30;;;3.40;;
8327;SDS011;4201;48.754;8.864;2023-12-20T11:55:16;6.20;;;2.53;;
8327;SDS011;4201;48.754;8.864;2023-12-20T11:57:42;8.87;;;3.20;;
8327;SDS011;4201;48.754;8.864;2023-12-20T12:00:09;8.60;;;2.53;;
8327;SDS011;4201;48.754;8.864;2023-12-20T12:02:35;9.13;;;3.30;;
8327;SDS011;4201;48.754;8.864;2023-12-20T12:05:03;8.90;;;2.97;;
8327;SDS011;4201;48.754;8.864;2023-12-20T12:07:30;6.50;;;2.27;;
8327;SDS011;4201;48.754;8.864;2023-12-20T12:09:56;9.17;;;2.87;;
8327;SDS011;4201;48.754;8.864;2023-12-20T12:12:23;7.90;;;2.70;;
8327;SDS011;4201;48.754;8.864;2023-12-20T12:14:50;7.60;;;3.13;;
8327;SDS011;4201;48.754;8.864;2023-12-20T12:17:16;5.63;;;2.90;;
8327;SDS011;4201;48.754;8.864;2023-12-20T12:19:43;19.27;;;4.10;;
8327;SDS011;4201;48.754;8.864;2023-12-20T12:22:11;9.93;;;3.90;;
8327;SDS011;4201;48.754;8.864;2023-12-20T12:24:39;10.77;;;2.30;;
8327;SDS011;4201;48.754;8.864;2023-12-20T12:27:05;9.03;;;2.40;;
8327;SDS011;4201;48.754;8.864;2023-12-20T12:29:32;6.83;;;2.03;;
8327;SDS011;4201;48.754;8.864;2023-12-20T12:31:58;8.00;;;2.87;;
8327;SDS011;4201;48.754;8.864;2023-12-20T12:34:26;14.63;;;2.60;;
8327;SDS011;4201;48.754;8.864;2023-12-20T12:36:53;9.80;;;3.00;;
8327;SDS011;4201;48.754;8.864;2023-12-20T12:39:20;8.10;;;2.60;;
8327;SDS011;4201;48.754;8.864;2023-12-20T12:41:46;8.37;;;2.77;;
8327;SDS011;4201;48.754;8.864;2023-12-20T12:44:13;9.60;;;3.10;;
8327;SDS011;4201;48.754;8.864;2023-12-20T12:46:39;4.83;;;2.03;;
8327;SDS011;4201;48.754;8.864;2023-12-20T12:49:05;9.20;;;2.13;;
8327;SDS011;4201;48.754;8.864;2023-12-20T12:51:31;5.83;;;2.30;;
8327;SDS011;4201;48.754;8.864;2023-12-20T12:53:58;4.83;;;2.33;;
8327;SDS011;4201;48.754;8.864;2023-12-20T12:56:25;4.80;;;2.20;;
8327;SDS011;4201;48.754;8.864;2023-12-20T12:58:52;11.73;;;2.40;;
8327;SDS011;4201;48.754;8.864;2023-12-20T13:01:18;7.60;;;2.00;;
8327;SDS011;4201;48.754;8.864;2023-12-20T13:03:44;11.30;;;2.20;;
8327;SDS011;4201;48.754;8.864;2023-12-20T13:06:10;7.33;;;2.00;;
8327;SDS011;4201;48.754;8.864;2023-12-20T13:08:36;9.63;;;2.50;;
8327;SDS011;4201;48.754;8.864;2023-12-20T13:11:03;5.00;;;1.63;;
8327;SDS011;4201;48.754;8.864;2023-12-20T13:13:31;9.93;;;2.20;;
8327;SDS011;4201;48.754;8.864;2023-12-20T13:15:57;7.10;;;2.60;;
8327;SDS011;4201;48.754;8.864;2023-12-20T13:18:23;7.13;;;2.50;;
8327;SDS011;4201;48.754;8.864;2023-12-20T13:20:50;11.23;;;2.50;;
8327;SDS011;4201;48.754;8.864;2023-12-20T13:23:16;13.23;;;2.20;;
8327;SDS011;4201;48.754;8.864;2023-12-20T13:25:43;8.23;;;2.10;;
8327;SDS011;4201;48.754;8.864;2023-12-20T13:28:10;8.17;;;2.67;;
8327;SDS011;4201;48.754;8.864;2023-12-20T13:30:38;6.00;;;2.10;;
8327;SDS011;4201;48.754;8.864;2023-12-20T13:33:04;6.50;;;2.37;;
8327;SDS011;4201;48.754;8.864;2023-12-20T13:35:31;5.63;;;1.40;;
8327;SDS011;4201;48.754;8.864;2023-12-20T13:37:57;5.70;;;2.23;;
8327;SDS011;4201;48.754;8.864;2023-12-20T13:40:24;12.53;;;3.50;;
8327;SDS011;4201;48.754;8.864;2023-12-20T13:42:50;6.27;;;2.33;;
8327;SDS011;4201;48.754;8.864;2023-12-20T13:45:16;8.40;;;2.23;;
8327;SDS011;4201;48.754;8.864;2023-12-20T13:47:44;8.37;;;2.27;;
8327;SDS011;4201;48.754;8.864;2023-12-20T13:50:10;5.40;;;2.33;;
8327;SDS011;4201;48.754;8.864;2023-12-20T13:52:37;9.33;;;2.53;;
8327;SDS011;4201;48.754;8.864;2023-12-20T13:55:04;6.23;;;2.90;;
8327;SDS011;4201;48.754;8.864;2023-12-20T13:57:32;7.80;;;2.60;;
8327;SDS011;4201;48.754;8.864;2023-12-20T13:59:59;7.73;;;2.10;;
8327;SDS011;4201;48.754;8.864;2023-12-20T14:02:25;4.87;;;2.13;;
8327;SDS011;4201;48.754;8.864;2023-12-20T14:04:53;5.70;;;2.13;;
8327;SDS011;4201;48.754;8.864;2023-12-20T14:07:19;73.67;;;10.40;;
8327;SDS011;4201;48.754;8.864;2023-12-20T14:09:46;11.40;;;2.70;;
8327;SDS011;4201;48.754;8.864;2023-12-20T14:12:12;9.13;;;2.57;;
8327;SDS011;4201;48.754;8.864;2023-12-20T14:14:39;14.13;;;3.53;;
8327;SDS011;4201;48.754;8.864;2023-12-20T14:17:05;14.23;;;2.60;;
8327;SDS011;4201;48.754;8.864;2023-12-20T14:19:31;9.03;;;3.07;;
8327;SDS011;4201;48.754;8.864;2023-12-20T14:21:59;15.27;;;3.73;;
8327;SDS011;4201;48.754;8.864;2023-12-20T14:24:26;9.13;;;2.87;;
8327;SDS011;4201;48.754;8.864;2023-12-20T14:26:53;6.27;;;2.00;;
8327;SDS011;4201;48.754;8.864;2023-12-20T14:29:19;4.60;;;2.00;;
8327;SDS011;4201;48.754;8.864;2023-12-20T14:31:45;66.70;;;6.23;;
8327;SDS011;4201;48.754;8.864;2023-12-20T14:34:11;41.03;;;7.07;;
8327;SDS011;4201;48.754;8.864;2023-12-20T14:36:38;18.30;;;3.47;;
8327;SDS011;4201;48.754;8.864;2023-12-20T14:39:05;35.13;;;5.10;;
8327;SDS011;4201;48.754;8.864;2023-12-20T14:41:33;8.80;;;4.03;;
8327;SDS011;4201;48.754;8.864;2023-12-20T14:43:59;16.93;;;4.07;;
8327;SDS011;4201;48.754;8.864;2023-12-20T14:46:26;69.93;;;11.27;;
8327;SDS011;4201;48.754;8.864;2023-12-20T14:48:53;87.23;;;9.33;;
8327;SDS011;4201;48.754;8.864;2023-12-20T14:51:19;28.93;;;6.13;;
8327;SDS011;4201;48.754;8.864;2023-12-20T14:53:45;8.67;;;3.40;;
8327;SDS011;4201;48.754;8.864;2023-12-20T14:56:13;12.10;;;6.13;;
8327;SDS011;4201;48.754;8.864;2023-12-20T14:58:40;40.10;;;9.33;;
8327;SDS011;4201;48.754;8.864;2023-12-20T15:01:06;100.97;;;11.10;;
8327;SDS011;4201;48.754;8.864;2023-12-20T15:03:33;39.17;;;6.97;;
8327;SDS011;4201;48.754;8.864;2023-12-20T15:06:00;8.03;;;2.30;;
8327;SDS011;4201;48.754;8.864;2023-12-20T15:08:26;9.80;;;2.97;;